Terminal Aerodrome Forecast
Issued by NWS

Home | Current Version | Previous Version | Text Only | Print | Product List | Glossary On
Versions: 1 2 3 4 5 6 7 8 9 10 11 12 13 14 15 16 17
000
FTUS45 KGGW 200520
TAFSDY
TAF
KSDY 200520Z 2006/2106 08005KT P6SM BKN170
     FM201400 11005KT P6SM BKN060
     FM210200 14008KT P6SM FEW110=

USA.gov is the U.S. government's official web portal to all federal, state and local government web resources and services.